Decoded Metar for KPSX (PALACIOS in TX, USA) (IATA:PSX) | Meteo·Mobile Aviation Weather
aviador You're here:

KPSX Decoded Metar

PALACIOS in TX, USA
Report Time2018-08-22 04:53:00
UTC Time2018-08-22 05:37:53
Flight Rules vfr VFR
Wind180° at 09 kt
W.Decomp.*RWY 17: 8.9 kt HW 1.1 kt RCW
RWY 13: 6.1 kt HW 6.6 kt RCW
RWY 26: 1.1 kt HW 8.9 kt LCW
W.Rank180° ranks 5
Current wind is below 180° avg. (9.0)
Visibility9999 m
Phenomena:N/A
Clouds:N/A
Expected CloudBase > 800 ft AGL from Temp-Dew spread
CeilingNone
Temp29°C (ISA +14)
Dew Point27°C (89% RH)
Heat Index36.8°C
QNH1019 hPa
Density Alt1,890 ft
Elevation16 ft
Report Wrong Elevation
Raw Report
KPSX 220453Z AUTO 18009KT 10SM CLR 29/27 A3008 RMK AO2 SLP184
T02940267=

Extra information for KPSX:More info

Metar Taf Metar & Taf Last 4 Metars F.Rules Stats Wind Profile Meteogram Temp Stats Airport Information Weather charts Add Link Nearby VenuesMetar ALERT Operation Metar Decoded Social comments

AIRNAV info for KPSX